Time;durP1;ratioP1;P1;durP2;ratioP2;P2;SDS_P1;SDS_P2;PMS_P1;PMS_P2;Temp;Humidity;BMP_temperature;BMP_pressure;BME280_temperature;BME280_humidity;BME280_pressure;Samples;Min_cycle;Max_cycle;Signal;HPM_P1;HPM_P2
2023/09/22 00:00:24;;;;;;;14.40;7.40;;;;;;;12.74;100.00;101673.54;105732;1257;64326;-49
2023/09/22 00:02:52;;;;;;;27.20;9.70;;;;;;;12.69;100.00;101667.84;105699;1254;72628;-54
2023/09/22 00:05:20;;;;;;;19.50;8.40;;;;;;;12.65;100.00;101667.71;105740;1256;61285;-52
2023/09/22 00:07:48;;;;;;;21.00;8.10;;;;;;;12.63;100.00;101665.98;105739;1253;60345;-51
2023/09/22 00:10:15;;;;;;;22.60;8.10;;;;;;;12.63;100.00;101662.69;105749;1254;72807;-53
2023/09/22 00:12:44;;;;;;;21.30;7.90;;;;;;;12.66;100.00;101657.83;105688;1254;63340;-52
2023/09/22 00:15:12;;;;;;;18.10;9.00;;;;;;;12.67;100.00;101653.67;105732;1254;71359;-50
2023/09/22 00:17:39;;;;;;;29.00;8.50;;;;;;;12.67;100.00;101653.31;105733;1253;60479;-50
2023/09/22 00:20:08;;;;;;;21.80;8.10;;;;;;;12.64;100.00;101650.73;105797;1257;60417;-52
2023/09/22 00:22:36;;;;;;;33.30;9.20;;;;;;;12.64;100.00;101645.38;105782;1252;72548;-49
2023/09/22 00:25:04;;;;;;;35.80;10.30;;;;;;;12.63;100.00;101640.52;105751;1254;63092;-51
2023/09/22 00:27:32;;;;;;;29.10;9.40;;;;;;;12.61;100.00;101636.21;105781;1254;71434;-51
2023/09/22 00:30:00;;;;;;;31.20;8.40;;;;;;;12.54;100.00;101637.84;105849;1257;60476;-51
2023/09/22 00:32:28;;;;;;;27.90;10.00;;;;;;;12.46;100.00;101639.28;105745;1252;60473;-51
2023/09/22 00:34:55;;;;;;;29.00;8.30;;;;;;;12.37;100.00;101641.77;105772;1252;72570;-52
2023/09/22 00:37:23;;;;;;;34.10;10.20;;;;;;;12.28;100.00;101638.73;105660;1254;63121;-50
2023/09/22 00:39:51;;;;;;;36.90;11.10;;;;;;;12.20;100.00;101639.80;105678;1258;71462;-49
2023/09/22 00:42:19;;;;;;;30.70;11.20;;;;;;;12.13;100.00;101636.56;105854;1254;60575;-50
2023/09/22 00:44:47;;;;;;;25.70;10.80;;;;;;;12.12;100.00;101633.27;105751;1256;60431;-50
2023/09/22 00:47:14;;;;;;;29.30;10.30;;;;;;;12.08;100.00;101629.67;105768;1253;72630;-51
2023/09/22 00:49:42;;;;;;;33.40;10.00;;;;;;;12.05;100.00;101624.14;105701;1254;63181;-51
2023/09/22 00:52:10;;;;;;;31.10;11.10;;;;;;;12.00;100.00;101617.23;105671;1254;72643;-52
2023/09/22 00:54:38;;;;;;;36.80;11.20;;;;;;;11.96;100.00;101609.97;105744;1254;60793;-51
2023/09/22 00:57:06;;;;;;;29.80;11.20;;;;;;;11.93;100.00;101601.00;105725;1254;60530;-51
2023/09/22 00:59:34;;;;;;;25.90;11.00;;;;;;;11.91;100.00;101592.54;105758;1254;73888;-50
2023/09/22 01:02:02;;;;;;;34.20;10.00;;;;;;;11.89;100.00;101587.36;105766;1252;64481;-50
2023/09/22 01:04:30;;;;;;;32.20;10.40;;;;;;;11.87;100.00;101577.34;105617;1262;72634;-50
2023/09/22 01:06:58;;;;;;;42.20;11.80;;;;;;;11.87;100.00;101565.05;105734;1254;60533;-50
2023/09/22 01:09:26;;;;;;;29.60;12.10;;;;;;;11.87;100.00;101557.11;105838;1257;60335;-51
2023/09/22 01:11:54;;;;;;;26.70;10.60;;;;;;;11.87;100.00;101547.25;105691;1253;72542;-51
2023/09/22 01:14:21;;;;;;;23.30;10.10;;;;;;;11.87;100.00;101540.16;105769;1254;63272;-52
2023/09/22 01:18:10;;;;;;;24.80;11.50;;;;;;;11.84;100.00;101566.48;102741;1295;600780;-51
2023/09/22 01:20:47;;;;;;;29.70;12.20;;;;;;;11.74;100.00;101534.53;105039;1264;59997;-51
2023/09/22 01:23:16;;;;;;;24.70;11.00;;;;;;;11.68;100.00;101530.58;104922;1264;59956;-50
2023/09/22 01:25:44;;;;;;;24.10;9.90;;;;;;;11.63;100.00;101527.16;105041;1265;72235;-49
2023/09/22 01:28:12;;;;;;;19.90;10.70;;;;;;;11.58;100.00;101525.80;105080;1265;64470;-49
2023/09/22 01:30:40;;;;;;;23.70;9.90;;;;;;;11.53;100.00;101518.06;104719;1268;435620;-51
2023/09/22 01:33:08;;;;;;;31.40;11.80;;;;;;;11.47;100.00;101514.45;105096;1265;59333;-51
2023/09/22 01:35:37;;;;;;;33.00;11.80;;;;;;;11.42;100.00;101510.85;105240;1266;59295;-49
2023/09/22 01:38:17;;;;;;;33.50;11.90;;;;;;;11.37;100.00;101506.73;105133;1264;71871;-50
2023/09/22 01:40:45;;;;;;;41.20;12.00;;;;;;;11.35;100.00;101502.41;105134;1264;63093;-49
2023/09/22 01:43:14;;;;;;;28.50;10.00;;;;;;;11.35;100.00;101494.12;105126;1269;71458;-50
2023/09/22 01:45:43;;;;;;;33.80;11.00;;;;;;;11.33;100.00;101485.66;105165;1269;60382;-49
2023/09/22 01:48:11;;;;;;;34.00;12.40;;;;;;;11.32;100.00;101478.92;105210;1269;59596;-50
2023/09/22 01:50:40;;;;;;;21.40;11.50;;;;;;;11.31;100.00;101469.08;105187;1269;71621;-51
2023/09/22 01:53:11;;;;;;;36.10;11.80;;;;;;;11.30;100.00;101460.62;105207;1269;63136;-49
2023/09/22 01:55:40;;;;;;;30.70;11.90;;;;;;;11.29;100.00;101455.97;105101;1270;71378;-50
2023/09/22 01:58:08;;;;;;;19.30;10.30;;;;;;;11.27;100.00;101453.39;105185;1269;61620;-50
2023/09/22 02:00:36;;;;;;;38.20;12.50;;;;;;;11.24;100.00;101450.30;105003;1265;59615;-51
2023/09/22 02:03:05;;;;;;;27.20;12.30;;;;;;;11.23;100.00;101451.50;105153;1263;71878;-51
2023/09/22 02:05:34;;;;;;;27.50;12.40;;;;;;;11.21;100.00;101447.02;105102;1264;63214;-52
2023/09/22 02:08:02;;;;;;;32.30;11.20;;;;;;;11.21;100.00;101448.21;105088;1269;71678;-49
2023/09/22 02:10:29;;;;;;;34.10;11.40;;;;;;;11.20;100.00;101442.70;105120;1269;61589;-49
2023/09/22 02:12:58;;;;;;;31.90;11.50;;;;;;;11.20;100.00;101438.90;105149;1263;59973;-49
2023/09/22 02:15:26;;;;;;;29.90;11.70;;;;;;;11.20;100.00;101435.80;105215;1264;72962;-50
2023/09/22 02:17:53;;;;;;;25.20;12.60;;;;;;;11.19;100.00;101432.52;105181;1264;63113;-52
2023/09/22 02:20:22;;;;;;;21.30;11.20;;;;;;;11.17;100.00;101432.52;105131;1268;71892;-52
2023/09/22 02:22:55;;;;;;;25.80;11.50;;;;;;;11.15;100.00;101431.34;105176;1270;60597;-51
2023/09/22 02:25:23;;;;;;;23.50;10.30;;;;;;;11.11;100.00;101431.01;104854;1264;60027;-51
2023/09/22 02:27:53;;;;;;;29.60;11.60;;;;;;;11.10;100.00;101432.04;105135;1264;71748;-50
2023/09/22 02:30:22;;;;;;;33.20;12.40;;;;;;;11.08;100.00;101424.63;105257;1266;63224;-50
2023/09/22 02:32:54;;;;;;;32.20;14.20;;;;;;;11.06;100.00;101423.08;105338;1266;71789;-48
2023/09/22 02:35:22;;;;;;;20.30;12.40;;;;;;;11.06;100.00;101418.77;105244;1265;60400;-50
2023/09/22 02:37:50;;;;;;;25.60;11.70;;;;;;;11.05;100.00;101416.35;105162;1265;59544;-49
2023/09/22 02:40:18;;;;;;;25.00;12.30;;;;;;;11.03;100.00;101410.66;105207;1261;73027;-50
2023/09/22 02:42:45;;;;;;;25.50;12.00;;;;;;;11.01;100.00;101407.40;105189;1266;63269;-49
2023/09/22 02:45:15;;;;;;;28.80;13.10;;;;;;;11.00;100.00;101407.40;105204;1264;71366;-51
2023/09/22 02:47:43;;;;;;;31.00;13.90;;;;;;;11.00;100.00;101403.08;105239;1266;59701;-50
2023/09/22 02:50:15;;;;;;;21.50;12.80;;;;;;;10.99;100.00;101398.77;105381;1264;59685;-51
2023/09/22 02:52:42;;;;;;;31.60;11.80;;;;;;;10.97;100.00;101399.97;105268;1261;72957;-50
2023/09/22 02:55:11;;;;;;;25.10;11.40;;;;;;;10.91;100.00;101403.45;105233;1270;63337;-51
2023/09/22 02:57:42;;;;;;;25.00;11.60;;;;;;;10.87;100.00;101400.20;105251;1261;70417;-49
2023/09/22 03:00:29;;;;;;;41.30;13.70;;;;;;;10.82;100.00;101395.91;105329;1266;59711;-49
2023/09/22 03:02:56;;;;;;;24.50;11.80;;;;;;;10.77;100.00;101394.73;105169;1273;59531;-49
2023/09/22 03:05:25;;;;;;;29.70;12.00;;;;;;;10.74;100.00;101394.04;105337;1261;71880;-50
2023/09/22 03:07:55;;;;;;;28.70;11.20;;;;;;;10.70;100.00;101398.19;105220;1267;63216;-49
2023/09/22 03:10:23;;;;;;;25.80;13.20;;;;;;;10.64;100.00;101398.23;105280;1260;71767;-50
2023/09/22 03:12:52;;;;;;;26.40;13.10;;;;;;;10.56;100.00;101402.05;105241;1264;59644;-51
2023/09/22 03:15:21;;;;;;;23.20;12.70;;;;;;;10.49;100.00;101404.65;105193;1263;59551;-49
2023/09/22 03:17:49;;;;;;;28.00;13.00;;;;;;;10.41;100.00;101405.36;105213;1267;71223;-52
2023/09/22 03:20:17;;;;;;;23.30;11.60;;;;;;;10.37;100.00;101407.08;105206;1266;63224;-51
2023/09/22 03:22:45;;;;;;;20.80;12.10;;;;;;;10.31;100.00;101407.61;105175;1261;73059;-51
2023/09/22 03:25:14;;;;;;;23.90;13.00;;;;;;;10.27;100.00;101407.45;105322;1267;59739;-48
2023/09/22 03:27:43;;;;;;;28.10;14.40;;;;;;;10.22;100.00;101402.27;105278;1265;59571;-51
2023/09/22 03:30:13;;;;;;;33.60;14.10;;;;;;;10.20;100.00;101406.23;105155;1266;70852;-50
2023/09/22 03:32:42;;;;;;;26.70;12.10;;;;;;;10.18;100.00;101403.98;105383;1261;62965;-50
2023/09/22 03:35:13;;;;;;;29.40;13.10;;;;;;;10.14;100.00;101405.92;105185;1261;71757;-51
2023/09/22 03:37:41;;;;;;;33.90;12.10;;;;;;;10.12;100.00;101405.75;105220;1261;60736;-49
2023/09/22 03:40:13;;;;;;;26.20;14.20;;;;;;;10.10;100.00;101409.89;105204;1266;59568;-50
2023/09/22 03:42:44;;;;;;;29.90;14.30;;;;;;;10.11;100.00;101409.02;105218;1266;72469;-49
2023/09/22 03:45:13;;;;;;;31.30;13.60;;;;;;;10.13;100.00;101412.12;105412;1264;63381;-51
2023/09/22 03:47:41;;;;;;;22.90;12.60;;;;;;;10.17;100.00;101410.73;105190;1266;71495;-51
2023/09/22 03:50:10;;;;;;;26.70;12.40;;;;;;;10.19;100.00;101402.27;105227;1266;60878;-50
2023/09/22 03:52:40;;;;;;;20.10;11.10;;;;;;;10.22;100.00;101400.20;105213;1266;59797;-51
2023/09/22 03:55:09;;;;;;;25.60;12.50;;;;;;;10.27;100.00;101401.92;105224;1262;71894;-51
2023/09/22 03:57:36;;;;;;;26.00;13.00;;;;;;;10.34;100.00;101398.27;105191;1266;64390;-52
2023/09/22 04:00:08;;;;;;;25.80;12.30;;;;;;;10.40;100.00;101398.80;105268;1263;70367;-50
2023/09/22 04:02:39;;;;;;;24.20;11.30;;;;;;;10.44;100.00;101391.21;105169;1266;60454;-51
2023/09/22 04:05:08;;;;;;;27.10;13.20;;;;;;;10.52;100.00;101394.98;105240;1266;59542;-49
2023/09/22 04:07:36;;;;;;;32.70;11.60;;;;;;;10.63;100.00;101393.39;105220;1267;71752;-49
2023/09/22 04:10:04;;;;;;;28.00;12.80;;;;;;;10.78;100.00;101393.52;105216;1263;63264;-49
2023/09/22 04:12:32;;;;;;;23.00;13.40;;;;;;;10.94;100.00;101389.99;105196;1264;72654;-49
2023/09/22 04:15:04;;;;;;;31.00;12.60;;;;;;;11.10;100.00;101391.79;104987;1268;61668;-49
2023/09/22 04:17:32;;;;;;;21.10;10.30;;;;;;;11.27;100.00;101390.31;105230;1260;60184;-51
2023/09/22 04:20:01;;;;;;;26.70;10.30;;;;;;;11.44;100.00;101390.55;105290;1266;70778;-52
2023/09/22 04:22:29;;;;;;;22.30;11.70;;;;;;;11.60;100.00;101394.05;105258;1261;63191;-53
2023/09/22 04:25:10;;;;;;;21.40;10.70;;;;;;;11.75;100.00;101396.20;105136;1266;71376;-49
2023/09/22 04:27:46;;;;;;;20.90;10.60;;;;;;;11.96;100.00;101395.50;105188;1265;60381;-52
2023/09/22 04:30:17;;;;;;;17.80;9.80;;;;;;;12.15;100.00;101390.30;105222;1274;60404;-50
2023/09/22 04:32:45;;;;;;;38.50;11.50;;;;;;;12.34;100.00;101392.89;105194;1266;71846;-51
2023/09/22 04:35:13;;;;;;;23.30;11.30;;;;;;;12.48;100.00;101393.42;105191;1265;63494;-51
2023/09/22 04:37:40;;;;;;;31.80;11.90;;;;;;;12.63;100.00;101398.27;105190;1265;71749;-50
2023/09/22 04:40:23;;;;;;;17.50;10.50;;;;;;;12.77;100.00;101402.95;105180;1266;61647;-49
2023/09/22 04:42:51;;;;;;;18.60;10.00;;;;;;;12.92;100.00;101403.80;105223;1274;59690;-49
2023/09/22 04:45:21;;;;;;;19.60;8.90;;;;;;;13.04;100.00;101409.02;105205;1261;72998;-49
2023/09/22 04:47:52;;;;;;;21.60;10.00;;;;;;;13.15;100.00;101413.72;105228;1267;64354;-50
2023/09/22 04:50:21;;;;;;;25.00;10.90;;;;;;;13.24;100.00;101418.61;105222;1267;71459;-49
2023/09/22 04:52:49;;;;;;;30.40;10.30;;;;;;;13.32;100.00;101422.86;105238;1261;60445;-49
2023/09/22 04:55:18;;;;;;;32.30;11.00;;;;;;;13.39;100.00;101431.23;105207;1265;59646;-51
2023/09/22 04:57:47;;;;;;;24.70;11.10;;;;;;;13.45;100.00;101440.55;105309;1261;71798;-50
2023/09/22 05:00:15;;;;;;;27.70;10.40;;;;;;;13.50;100.00;101450.86;105202;1266;63148;-51
2023/09/22 05:02:43;;;;;;;29.50;11.00;;;;;;;13.55;100.00;101458.44;105195;1262;71445;-52
2023/09/22 05:05:12;;;;;;;26.30;10.20;;;;;;;13.59;100.00;101470.68;105235;1266;59720;-52
2023/09/22 05:07:39;;;;;;;29.70;10.60;;;;;;;13.63;100.00;101483.80;105238;1266;59926;-49
2023/09/22 05:10:08;;;;;;;39.40;11.10;;;;;;;13.69;100.00;101500.55;105210;1267;71814;-51
2023/09/22 05:12:35;;;;;;;30.70;10.70;;;;;;;13.73;100.00;101514.36;105275;1266;63256;-51
2023/09/22 05:15:05;;;;;;;45.30;10.00;;;;;;;13.78;100.00;101530.59;105215;1266;71924;-50
2023/09/22 05:17:34;;;;;;;23.40;10.60;;;;;;;13.86;100.00;101548.70;105345;1261;60345;-50
2023/09/22 05:20:11;;;;;;;25.00;11.10;;;;;;;13.92;100.00;101570.64;105195;1265;59643;-50
2023/09/22 05:22:40;;;;;;;25.10;11.20;;;;;;;14.00;100.00;101589.27;105266;1264;71781;-50
2023/09/22 05:25:09;;;;;;;27.70;9.70;;;;;;;14.09;100.00;101607.01;105230;1266;64353;-49
2023/09/22 05:27:40;;;;;;;26.70;11.90;;;;;;;14.19;100.00;101626.14;105232;1267;71430;-49
2023/09/22 05:30:09;;;;;;;33.80;14.00;;;;;;;14.28;100.00;101642.84;105206;1267;60418;-51
2023/09/22 05:32:37;;;;;;;35.20;16.10;;;;;;;14.39;100.00;101665.25;105277;1262;60341;-50
2023/09/22 05:35:05;;;;;;;45.40;23.20;;;;;;;14.51;100.00;101687.30;105231;1262;73786;-50
2023/09/22 05:37:34;;;;;;;45.00;22.20;;;;;;;14.61;100.00;101710.59;105191;1262;63488;-50
2023/09/22 05:40:05;;;;;;;30.40;14.90;;;;;;;14.73;100.00;101727.64;105184;1267;72670;-50
2023/09/22 05:42:33;;;;;;;27.00;11.30;;;;;;;14.85;100.00;101746.57;105306;1266;61619;-50
2023/09/22 05:45:02;;;;;;;16.50;9.40;;;;;;;14.97;100.00;101761.83;105203;1261;60430;-49
2023/09/22 05:47:29;;;;;;;20.80;8.30;;;;;;;15.11;100.00;101767.54;105244;1260;73869;-52
2023/09/22 05:49:57;;;;;;;13.40;7.80;;;;;;;15.25;100.00;101772.68;105187;1264;63096;-51
2023/09/22 05:52:25;;;;;;;21.80;7.20;;;;;;;15.36;100.00;101770.77;105210;1263;71004;-51
2023/09/22 05:54:52;;;;;;;16.00;7.00;;;;;;;15.48;100.00;101758.20;105199;1262;60549;-51
2023/09/22 05:57:20;;;;;;;16.60;7.10;;;;;;;15.60;100.00;101725.79;105220;1266;60415;-49
2023/09/22 05:59:48;;;;;;;16.90;7.30;;;;;;;15.68;100.00;101677.09;105227;1267;74235;-50
2023/09/22 06:02:16;;;;;;;13.00;6.60;;;;;;;15.75;100.00;101596.21;105208;1265;63145;-49
2023/09/22 06:04:44;;;;;;;16.60;7.00;;;;;;;15.84;100.00;101484.80;105173;1265;71438;-50
2023/09/22 06:07:12;;;;;;;17.30;7.20;;;;;;;15.93;100.00;101341.90;105211;1266;60533;-49
2023/09/22 06:09:40;;;;;;;15.50;6.40;;;;;;;16.01;100.00;101180.84;105655;1260;60368;-48
2023/09/22 06:12:08;;;;;;;31.30;8.80;;;;;;;16.07;100.00;101070.45;105614;1258;72522;-51
2023/09/22 06:14:35;;;;;;;17.60;7.10;;;;;;;16.11;100.00;101021.08;105619;1257;64604;-51
2023/09/22 06:17:04;;;;;;;19.50;7.90;;;;;;;16.15;100.00;101000.38;105589;1260;70758;-50
2023/09/22 06:19:32;;;;;;;17.40;8.30;;;;;;;16.20;100.00;100977.09;105544;1263;60516;-50
2023/09/22 06:22:00;;;;;;;15.90;8.10;;;;;;;16.25;100.00;100951.86;105573;1261;60453;-50
2023/09/22 06:24:28;;;;;;;16.20;7.30;;;;;;;16.32;100.00;100942.02;105602;1258;72539;-52
2023/09/22 06:26:56;;;;;;;17.70;7.70;;;;;;;16.39;100.00;100924.17;105588;1260;63104;-50
2023/09/22 06:29:24;;;;;;;24.20;8.00;;;;;;;16.48;100.00;100908.22;105539;1260;72625;-50
2023/09/22 06:31:51;;;;;;;14.60;7.20;;;;;;;16.54;100.00;100893.53;105537;1264;60440;-50
2023/09/22 06:34:21;;;;;;;17.90;8.00;;;;;;;16.61;100.00;100878.31;105768;1260;60437;-50
2023/09/22 06:36:49;;;;;;;29.10;8.20;;;;;;;16.67;100.00;100869.89;105573;1258;73650;-50
2023/09/22 06:39:17;;;;;;;13.30;6.80;;;;;;;16.75;100.00;100860.72;105586;1261;63265;-51
2023/09/22 06:41:44;;;;;;;11.50;7.20;;;;;;;16.83;100.00;100862.16;105703;1258;71470;-51
2023/09/22 06:44:13;;;;;;;13.20;7.70;;;;;;;16.91;100.00;100861.48;105598;1258;60442;-51
2023/09/22 06:46:42;;;;;;;13.50;7.00;;;;;;;17.01;100.00;100861.31;105558;1257;60376;-53
2023/09/22 06:49:09;;;;;;;16.00;7.40;;;;;;;17.11;100.00;100846.82;105484;1257;73601;-50
2023/09/22 06:51:38;;;;;;;16.00;7.80;;;;;;;17.21;100.00;100832.10;105381;1260;63103;-52
2023/09/22 06:54:06;;;;;;;21.10;9.40;;;;;;;17.31;100.00;100814.09;105532;1257;72662;-50
2023/09/22 06:56:35;;;;;;;28.50;8.90;;;;;;;17.41;100.00;100795.19;105523;1257;60440;-51
2023/09/22 06:59:16;;;;;;;23.90;9.00;;;;;;;17.52;100.00;100793.70;105581;1260;60395;-50
2023/09/22 07:01:44;;;;;;;26.00;7.90;;;;;;;17.65;100.00;100793.67;105581;1258;72646;-48
2023/09/22 07:04:13;;;;;;;19.30;7.70;;;;;;;17.79;100.00;100797.79;105547;1260;63169;-48
2023/09/22 07:06:41;;;;;;;20.80;7.80;;;;;;;17.89;100.00;100802.77;105589;1261;71379;-51
2023/09/22 07:09:12;;;;;;;20.40;9.00;;;;;;;17.99;100.00;100802.20;105596;1258;60536;-50
2023/09/22 07:11:40;;;;;;;21.10;8.90;;;;;;;18.10;100.00;100806.98;105642;1258;60393;-51
2023/09/22 07:14:08;;;;;;;25.00;9.00;;;;;;;18.21;100.00;100807.02;105601;1258;72548;-49
2023/09/22 07:16:36;;;;;;;24.00;8.30;;;;;;;18.32;100.00;100818.19;105578;1257;63449;-51
2023/09/22 07:19:05;;;;;;;25.80;8.70;;;;;;;18.48;100.00;100826.25;105659;1260;71418;-50
2023/09/22 07:21:34;;;;;;;21.70;8.30;;;;;;;18.61;100.00;100847.15;105527;1258;61688;-50
2023/09/22 07:24:03;;;;;;;26.80;9.20;;;;;;;18.73;100.00;100867.05;105607;1257;60400;-51
2023/09/22 07:26:30;;;;;;;19.90;8.90;;;;;;;18.83;100.00;100887.02;105595;1264;72621;-50
2023/09/22 07:28:58;;;;;;;29.90;8.80;;;;;;;18.92;100.00;100901.64;105708;1258;62840;-50
2023/09/22 07:31:30;;;;;;;33.40;8.50;;;;;;;19.04;100.00;100917.39;105622;1257;71451;-49
2023/09/22 07:33:59;;;;;;;27.50;8.40;;;;;;;19.22;100.00;100914.11;105590;1257;60465;-49
2023/09/22 07:36:27;;;;;;;23.10;8.20;;;;;;;19.39;100.00;100920.16;105619;1260;60444;-50
2023/09/22 07:38:54;;;;;;;17.00;7.70;;;;;;;19.56;100.00;100917.73;105603;1260;72586;-52
2023/09/22 07:41:22;;;;;;;20.60;8.20;;;;;;;19.75;100.00;100917.36;105546;1258;63111;-50
2023/09/22 07:43:52;;;;;;;17.10;8.00;;;;;;;19.89;100.00;100926.46;105544;1260;71337;-50
2023/09/22 07:46:22;;;;;;;34.00;9.30;;;;;;;19.94;100.00;100945.30;105760;1260;60479;-51
2023/09/22 07:48:53;;;;;;;26.40;8.60;;;;;;;20.02;100.00;100949.16;105604;1258;60444;-51
2023/09/22 07:51:22;;;;;;;23.90;8.40;;;;;;;20.16;100.00;100958.97;105578;1256;72560;-51
2023/09/22 07:53:50;;;;;;;22.70;8.40;;;;;;;20.29;100.00;100978.77;105605;1257;63220;-50
2023/09/22 07:56:18;;;;;;;28.60;8.40;;;;;;;20.44;100.00;100983.48;105588;1257;72609;-50
2023/09/22 07:58:46;;;;;;;24.00;8.60;;;;;;;20.58;100.00;100997.81;105551;1261;60370;-50
2023/09/22 08:01:29;;;;;;;13.70;7.50;;;;;;;20.72;100.00;101021.47;105569;1268;60504;-50
2023/09/22 08:03:57;;;;;;;28.00;7.90;;;;;;;20.91;100.00;101028.21;105598;1257;75904;-51
2023/09/22 08:06:27;;;;;;;17.40;7.30;;;;;;;21.11;100.00;101037.20;105580;1257;63201;-50
2023/09/22 08:08:54;;;;;;;15.50;7.30;;;;;;;21.28;100.00;101053.30;105654;1260;73061;-50
2023/09/22 08:11:23;;;;;;;23.60;7.80;;;;;;;21.45;100.00;101068.52;105887;1257;60543;-50
2023/09/22 08:13:50;;;;;;;14.60;7.40;;;;;;;21.61;100.00;101078.89;105850;1254;60323;-50
2023/09/22 08:16:18;;;;;;;10.80;7.10;;;;;;;21.74;100.00;101085.42;105868;1253;75675;-51
2023/09/22 08:18:46;;;;;;;21.00;7.50;;;;;;;21.83;100.00;101099.13;105896;1257;65876;-52
2023/09/22 08:21:15;;;;;;;19.90;7.40;;;;;;;21.94;100.00;101108.71;105870;1257;71379;-51
2023/09/22 08:23:43;;;;;;;20.90;7.70;;;;;;;22.07;99.32;101108.69;105845;1258;60537;-51
2023/09/22 08:26:18;;;;;;;15.10;7.90;;;;;;;22.20;95.44;101107.79;105911;1252;60498;-52
2023/09/22 08:28:50;;;;;;;13.70;7.20;;;;;;;22.31;91.71;101119.14;105898;1257;73760;-51
2023/09/22 08:31:17;;;;;;;13.80;6.90;;;;;;;22.47;91.50;101128.21;105858;1255;66145;-50
2023/09/22 08:33:45;;;;;;;15.80;7.50;;;;;;;22.72;91.10;101122.39;105872;1256;75374;-49
2023/09/22 08:36:15;;;;;;;20.20;7.00;;;;;;;22.95;85.21;101108.39;105834;1252;62560;-50
2023/09/22 08:38:43;;;;;;;12.20;6.80;;;;;;;23.11;81.42;101104.08;105901;1257;61416;-52
2023/09/22 08:41:12;;;;;;;13.40;7.10;;;;;;;23.28;79.57;101101.80;105819;1253;72743;-52
2023/09/22 08:43:45;;;;;;;13.60;6.90;;;;;;;23.46;76.29;101083.49;105817;1254;63225;-50
2023/09/22 08:46:13;;;;;;;10.20;6.70;;;;;;;23.62;74.89;101087.92;105817;1254;74153;-52
2023/09/22 08:48:41;;;;;;;14.00;7.10;;;;;;;23.80;73.30;101081.11;105668;1256;60631;-52
2023/09/22 08:51:09;;;;;;;18.20;6.80;;;;;;;23.96;71.94;101071.14;105824;1254;61388;-52
2023/09/22 08:53:37;;;;;;;12.20;6.90;;;;;;;24.17;70.40;101060.08;105842;1254;73007;-51
2023/09/22 08:56:06;;;;;;;16.90;7.20;;;;;;;24.39;69.65;101056.16;105828;1260;63219;-50
2023/09/22 08:58:34;;;;;;;18.90;6.40;;;;;;;24.56;68.36;101043.73;105811;1254;71373;-51
2023/09/22 09:01:02;;;;;;;14.30;6.80;;;;;;;24.67;66.45;101002.55;105883;1257;62033;-50
2023/09/22 09:03:30;;;;;;;14.60;7.20;;;;;;;24.84;66.56;101032.15;105957;1253;62960;-51
2023/09/22 09:06:07;;;;;;;14.70;6.90;;;;;;;25.02;65.24;100997.02;105809;1257;75441;-50
2023/09/22 09:08:34;;;;;;;14.00;6.60;;;;;;;25.22;64.51;100982.70;105931;1254;64336;-53
2023/09/22 09:11:08;;;;;;;13.00;6.50;;;;;;;25.39;62.98;100935.58;105772;1257;71707;-51
2023/09/22 09:13:37;;;;;;;15.20;7.00;;;;;;;25.54;63.51;100979.86;105708;1253;60447;-52
2023/09/22 09:16:08;;;;;;;12.00;6.60;;;;;;;25.77;62.90;100960.20;106023;1253;62822;-53
2023/09/22 09:18:36;;;;;;;16.50;7.30;;;;;;;26.01;62.78;100958.01;105879;1254;72548;-50
2023/09/22 09:21:20;;;;;;;14.50;6.70;;;;;;;26.22;60.64;100871.45;105899;1253;63094;-51
2023/09/22 09:23:53;;;;;;;15.60;7.00;;;;;;;26.26;60.04;100868.08;105862;1254;72951;-52
2023/09/22 09:26:27;;;;;;;14.90;7.30;;;;;;;26.39;60.18;100892.73;105855;1254;62093;-51
2023/09/22 09:28:56;;;;;;;15.20;7.70;;;;;;;26.55;58.97;100843.73;105687;1260;61762;-52
2023/09/22 09:31:46;;;;;;;13.70;6.80;;;;;;;26.65;58.46;100817.25;105877;1256;74612;-51
2023/09/22 09:34:15;;;;;;;23.40;7.40;;;;;;;26.82;58.07;100816.10;105822;1257;64333;-51
2023/09/22 09:36:43;;;;;;;17.70;7.10;;;;;;;26.98;57.66;100803.45;105928;1252;75443;-51
2023/09/22 09:39:12;;;;;;;20.50;6.90;;;;;;;27.07;56.04;100682.67;105903;1254;60527;-53
2023/09/22 09:41:43;;;;;;;12.60;7.50;;;;;;;27.10;56.89;100792.95;105662;1252;63101;-52
2023/09/22 09:44:11;;;;;;;14.40;6.90;;;;;;;27.25;56.05;100725.10;105840;1254;72546;-52
2023/09/22 09:46:39;;;;;;;16.90;7.00;;;;;;;27.31;55.42;100671.62;105700;1254;63843;-52
2023/09/22 09:49:09;;;;;;;12.30;6.80;;;;;;;27.34;54.93;100650.11;105785;1254;71410;-52
2023/09/22 09:51:38;;;;;;;15.20;6.60;;;;;;;27.42;54.56;100660.78;105770;1254;60665;-55
2023/09/22 09:54:08;;;;;;;12.90;6.50;;;;;;;27.52;54.49;100638.80;105936;1256;60417;-52
2023/09/22 09:56:38;;;;;;;18.50;7.20;;;;;;;27.60;53.49;100566.01;105856;1253;72574;-54
2023/09/22 09:59:07;;;;;;;19.60;7.60;;;;;;;27.63;53.09;100530.73;105974;1253;65751;-55
2023/09/22 10:01:36;;;;;;;14.70;7.20;;;;;;;27.64;52.41;100472.30;105924;1254;75473;-54
2023/09/22 10:04:03;;;;;;;18.10;7.30;;;;;;;27.60;52.46;100502.93;105896;1256;61812;-51
2023/09/22 10:06:32;;;;;;;12.40;7.10;;;;;;;27.62;52.62;100529.17;105688;1259;61790;-54
2023/09/22 10:09:11;;;;;;;17.90;8.20;;;;;;;27.71;52.88;100560.48;105779;1254;75867;-52
2023/09/22 10:11:39;;;;;;;16.10;7.60;;;;;;;27.82;52.25;100498.44;105710;1258;65865;-52
2023/09/22 10:14:08;;;;;;;17.70;7.90;;;;;;;27.88;51.82;100470.50;105840;1254;75194;-52
2023/09/22 10:16:35;;;;;;;21.40;7.50;;;;;;;27.90;52.37;100528.10;105698;1254;63001;-52
2023/09/22 10:19:03;;;;;;;17.40;7.30;;;;;;;27.96;52.02;100520.30;105981;1256;60430;-54
2023/09/22 10:21:46;;;;;;;12.60;7.10;;;;;;;28.04;51.80;100492.44;105847;1254;75606;-54
2023/09/22 10:24:17;;;;;;;17.00;7.40;;;;;;;28.20;51.53;100468.79;105890;1254;66314;-51
2023/09/22 10:26:54;;;;;;;19.60;7.40;;;;;;;28.37;50.93;100397.67;105848;1257;72607;-51
2023/09/22 10:29:37;;;;;;;16.30;6.60;;;;;;;28.58;50.85;100370.71;105750;1254;61250;-52
2023/09/22 10:32:15;;;;;;;13.10;8.10;;;;;;;28.65;50.07;100284.31;105801;1257;60930;-53
2023/09/22 10:35:00;;;;;;;29.80;6.80;;;;;;;28.72;50.20;100323.78;105770;1254;73826;-52
2023/09/22 10:37:29;;;;;;;24.00;7.50;;;;;;;28.87;50.32;100365.11;105895;1257;63234;-53
2023/09/22 10:40:13;;;;;;;15.10;6.70;;;;;;;28.97;49.13;100225.63;105820;1253;73693;-52
2023/09/22 10:42:43;;;;;;;16.40;7.10;;;;;;;28.88;48.33;100112.56;105937;1254;61028;-52
2023/09/22 10:45:11;;;;;;;13.70;6.50;;;;;;;28.65;48.54;100155.16;105857;1254;62454;-52
2023/09/22 10:47:43;;;;;;;18.10;6.10;;;;;;;28.51;48.69;100208.81;105851;1254;76554;-53
2023/09/22 10:50:24;;;;;;;12.90;6.40;;;;;;;28.44;48.84;100243.64;105868;1253;66547;-52
2023/09/22 10:52:58;;;;;;;17.00;5.50;;;;;;;28.25;48.92;100256.27;105798;1254;74640;-52
2023/09/22 10:55:26;;;;;;;14.70;5.80;;;;;;;28.16;48.96;100296.96;105956;1254;61821;-50
2023/09/22 10:57:55;;;;;;;14.30;5.50;;;;;;;28.06;49.25;100317.63;105814;1257;62953;-52
2023/09/22 11:00:23;;;;;;;15.00;5.70;;;;;;;28.12;49.87;100415.84;105812;1254;76031;-50
2023/09/22 11:02:51;;;;;;;13.40;5.70;;;;;;;28.31;49.66;100389.23;105906;1257;65055;-50
2023/09/22 11:05:19;;;;;;;15.00;5.00;;;;;;;28.49;48.58;100274.89;105837;1256;75331;-51
2023/09/22 11:07:48;;;;;;;12.00;5.10;;;;;;;28.46;48.16;100191.73;105899;1253;60540;-50
2023/09/22 11:10:22;;;;;;;10.60;5.10;;;;;;;28.38;48.12;100201.06;105880;1254;61815;-51